sensor_id;sensor_type;location;lat;lon;timestamp;pressure;altitude;pressure_sealevel;temperature;humidity
3524;BME280;1776;53.330;11.498;2022-11-11T00:01:13;53988.22;;;-147.39;65.72
3524;BME280;1776;53.330;11.498;2022-11-11T00:03:39;53951.34;;;-147.39;65.62
3524;BME280;1776;53.330;11.498;2022-11-11T00:06:12;53977.97;;;-147.39;65.49
3524;BME280;1776;53.330;11.498;2022-11-11T00:08:39;53986.19;;;-147.39;65.52
3524;BME280;1776;53.330;11.498;2022-11-11T00:11:10;53988.22;;;-147.39;65.58
3524;BME280;1776;53.330;11.498;2022-11-11T00:13:36;53990.28;;;-147.39;65.62
3524;BME280;1776;53.330;11.498;2022-11-11T00:16:10;54014.84;;;-147.39;65.62
3524;BME280;1776;53.330;11.498;2022-11-11T00:18:36;53996.41;;;-147.39;65.58
3524;BME280;1776;53.330;11.498;2022-11-11T00:21:20;53982.06;;;-147.39;65.48
3524;BME280;1776;53.330;11.498;2022-11-11T00:24:01;54119.34;;;-147.39;65.93
3524;BME280;1776;53.330;11.498;2022-11-11T00:26:45;54012.81;;;-147.39;66.13
3524;BME280;1776;53.330;11.498;2022-11-11T00:29:10;54018.97;;;-147.39;66.54
3524;BME280;1776;53.330;11.498;2022-11-11T00:31:35;53996.41;;;-147.39;66.27
3524;BME280;1776;53.330;11.498;2022-11-11T00:34:21;53986.19;;;-147.39;66.24
3524;BME280;1776;53.330;11.498;2022-11-11T00:36:46;54018.97;;;-147.39;65.89
3524;BME280;1776;53.330;11.498;2022-11-11T00:39:11;53967.72;;;-147.39;66.19
3524;BME280;1776;53.330;11.498;2022-11-11T00:41:36;53953.41;;;-147.39;66.34
3524;BME280;1776;53.330;11.498;2022-11-11T00:44:02;54031.25;;;-147.39;66.35
3524;BME280;1776;53.330;11.498;2022-11-11T00:46:27;53965.69;;;-147.39;66.16
3524;BME280;1776;53.330;11.498;2022-11-11T00:49:11;54008.72;;;-147.39;66.54
3524;BME280;1776;53.330;11.498;2022-11-11T00:51:55;53977.97;;;-147.39;66.53
3524;BME280;1776;53.330;11.498;2022-11-11T00:54:20;53998.47;;;-147.39;66.73
3524;BME280;1776;53.330;11.498;2022-11-11T00:56:45;53967.72;;;-147.39;66.45
3524;BME280;1776;53.330;11.498;2022-11-11T00:59:11;54016.91;;;-147.39;66.81
3524;BME280;1776;53.330;11.498;2022-11-11T01:01:36;54010.75;;;-147.39;66.97
3524;BME280;1776;53.330;11.498;2022-11-11T01:04:03;54002.56;;;-147.39;66.86
3524;BME280;1776;53.330;11.498;2022-11-11T01:06:29;54029.19;;;-147.39;67.00
3524;BME280;1776;53.330;11.498;2022-11-11T01:08:54;54016.91;;;-147.39;66.79
3524;BME280;1776;53.330;11.498;2022-11-11T01:11:21;54002.56;;;-147.39;67.05
3524;BME280;1776;53.330;11.498;2022-11-11T01:13:47;53980.03;;;-147.39;66.95
3524;BME280;1776;53.330;11.498;2022-11-11T01:16:16;53992.31;;;-147.39;67.09
3524;BME280;1776;53.330;11.498;2022-11-11T01:18:41;54018.97;;;-147.39;67.18
3524;BME280;1776;53.330;11.498;2022-11-11T01:21:11;53977.97;;;-147.39;67.05
3524;BME280;1776;53.330;11.498;2022-11-11T01:23:38;53984.13;;;-147.39;67.10
3524;BME280;1776;53.330;11.498;2022-11-11T01:26:06;53990.28;;;-147.39;66.88
3524;BME280;1776;53.330;11.498;2022-11-11T01:28:32;54016.91;;;-147.39;66.96
3524;BME280;1776;53.330;11.498;2022-11-11T01:31:03;53994.38;;;-147.39;66.88
3524;BME280;1776;53.330;11.498;2022-11-11T01:33:29;53994.38;;;-147.39;66.93
3524;BME280;1776;53.330;11.498;2022-11-11T01:35:54;54023.06;;;-147.39;66.96
3524;BME280;1776;53.330;11.498;2022-11-11T01:38:19;54027.16;;;-147.39;66.70
3524;BME280;1776;53.330;11.498;2022-11-11T01:40:47;54008.72;;;-147.39;66.47
3524;BME280;1776;53.330;11.498;2022-11-11T01:43:20;53988.22;;;-147.39;66.58
3524;BME280;1776;53.330;11.498;2022-11-11T01:45:58;53959.53;;;-147.39;66.46
3524;BME280;1776;53.330;11.498;2022-11-11T01:51:15;54016.91;;;-147.39;66.13
3524;BME280;1776;53.330;11.498;2022-11-11T01:53:44;53984.13;;;-147.39;65.93
3524;BME280;1776;53.330;11.498;2022-11-11T01:56:10;54006.66;;;-147.39;65.59
3524;BME280;1776;53.330;11.498;2022-11-11T01:58:36;54004.63;;;-147.39;65.84
3524;BME280;1776;53.330;11.498;2022-11-11T02:01:02;53990.28;;;-147.39;65.62
3524;BME280;1776;53.330;11.498;2022-11-11T02:03:30;54018.97;;;-147.39;65.72
3524;BME280;1776;53.330;11.498;2022-11-11T02:05:58;53996.41;;;-147.39;65.66
3524;BME280;1776;53.330;11.498;2022-11-11T02:08:26;54012.81;;;-147.39;65.81
3524;BME280;1776;53.330;11.498;2022-11-11T02:11:17;53992.31;;;-147.39;66.15
3524;BME280;1776;53.330;11.498;2022-11-11T02:14:05;54000.50;;;-147.39;65.83
3524;BME280;1776;53.330;11.498;2022-11-11T02:16:50;53971.84;;;-147.39;66.05
3524;BME280;1776;53.330;11.498;2022-11-11T02:19:17;54004.63;;;-147.39;66.06
3524;BME280;1776;53.330;11.498;2022-11-11T02:21:53;54004.63;;;-147.39;66.01
3524;BME280;1776;53.330;11.498;2022-11-11T02:24:20;53990.28;;;-147.39;65.87
3524;BME280;1776;53.330;11.498;2022-11-11T02:26:47;53969.78;;;-147.39;65.75
3524;BME280;1776;53.330;11.498;2022-11-11T02:29:17;53994.38;;;-147.39;65.85
3524;BME280;1776;53.330;11.498;2022-11-11T02:31:44;53980.03;;;-147.39;65.80
3524;BME280;1776;53.330;11.498;2022-11-11T02:34:09;53977.97;;;-147.39;65.79
3524;BME280;1776;53.330;11.498;2022-11-11T02:36:35;53980.03;;;-147.39;65.89
3524;BME280;1776;53.330;11.498;2022-11-11T02:39:01;53998.47;;;-147.39;66.28
3524;BME280;1776;53.330;11.498;2022-11-11T02:41:26;54082.47;;;-147.39;66.62
3524;BME280;1776;53.330;11.498;2022-11-11T02:44:10;53998.47;;;-147.39;66.30
3524;BME280;1776;53.330;11.498;2022-11-11T02:46:35;54008.72;;;-147.39;66.24
3524;BME280;1776;53.330;11.498;2022-11-11T02:49:01;53986.19;;;-147.39;66.23
3524;BME280;1776;53.330;11.498;2022-11-11T02:51:26;54008.72;;;-147.39;66.00
3524;BME280;1776;53.330;11.498;2022-11-11T02:53:51;54002.56;;;-147.39;66.39
3524;BME280;1776;53.330;11.498;2022-11-11T02:56:16;53980.03;;;-147.39;66.40
3524;BME280;1776;53.330;11.498;2022-11-11T02:59:02;53982.06;;;-147.39;66.27
3524;BME280;1776;53.330;11.498;2022-11-11T03:01:27;54004.63;;;-147.39;66.74
3524;BME280;1776;53.330;11.498;2022-11-11T03:03:52;53992.31;;;-147.39;66.42
3524;BME280;1776;53.330;11.498;2022-11-11T03:06:17;54006.66;;;-147.39;66.44
3524;BME280;1776;53.330;11.498;2022-11-11T03:08:43;53996.41;;;-147.39;66.04
3524;BME280;1776;53.330;11.498;2022-11-11T03:11:08;54002.56;;;-147.39;65.90
3524;BME280;1776;53.330;11.498;2022-11-11T03:13:33;53969.78;;;-147.39;66.02
3524;BME280;1776;53.330;11.498;2022-11-11T03:15:58;54023.06;;;-147.39;66.45
3524;BME280;1776;53.330;11.498;2022-11-11T03:18:24;54010.75;;;-147.39;66.70
3524;BME280;1776;53.330;11.498;2022-11-11T03:20:49;53977.97;;;-147.39;66.56
3524;BME280;1776;53.330;11.498;2022-11-11T03:23:34;53971.84;;;-147.39;66.29
3524;BME280;1776;53.330;11.498;2022-11-11T03:26:00;53992.31;;;-147.39;66.33
3524;BME280;1776;53.330;11.498;2022-11-11T03:28:25;53996.41;;;-147.39;66.26
3524;BME280;1776;53.330;11.498;2022-11-11T03:30:50;53977.97;;;-147.39;66.02
3524;BME280;1776;53.330;11.498;2022-11-11T03:33:17;53998.47;;;-147.39;66.04
3524;BME280;1776;53.330;11.498;2022-11-11T03:35:46;54010.75;;;-147.39;65.59
3524;BME280;1776;53.330;11.498;2022-11-11T03:38:12;53969.78;;;-147.39;65.69
3524;BME280;1776;53.330;11.498;2022-11-11T03:40:52;54074.28;;;-147.39;65.34
3524;BME280;1776;53.330;11.498;2022-11-11T03:43:19;53996.41;;;-147.39;65.33
3524;BME280;1776;53.330;11.498;2022-11-11T03:45:45;53996.41;;;-147.39;65.36
3524;BME280;1776;53.330;11.498;2022-11-11T03:48:11;54002.56;;;-147.39;65.54
3524;BME280;1776;53.330;11.498;2022-11-11T03:50:37;53982.06;;;-147.39;65.38
3524;BME280;1776;53.330;11.498;2022-11-11T03:53:02;54010.75;;;-147.39;65.59
3524;BME280;1776;53.330;11.498;2022-11-11T03:55:28;54006.66;;;-147.39;65.79
3524;BME280;1776;53.330;11.498;2022-11-11T03:57:54;53984.13;;;-147.39;65.89
3524;BME280;1776;53.330;11.498;2022-11-11T04:00:22;53994.38;;;-147.39;65.74
3524;BME280;1776;53.330;11.498;2022-11-11T04:02:48;54000.50;;;-147.39;66.02
3524;BME280;1776;53.330;11.498;2022-11-11T04:05:32;54006.66;;;-147.39;66.12
3524;BME280;1776;53.330;11.498;2022-11-11T04:08:17;53971.84;;;-147.39;66.11
3524;BME280;1776;53.330;11.498;2022-11-11T04:11:32;53990.28;;;-147.39;65.94
3524;BME280;1776;53.330;11.498;2022-11-11T04:14:02;53986.19;;;-147.39;66.06
3524;BME280;1776;53.330;11.498;2022-11-11T04:16:46;54008.72;;;-147.39;66.23
3524;BME280;1776;53.330;11.498;2022-11-11T04:19:11;53992.31;;;-147.39;66.05
3524;BME280;1776;53.330;11.498;2022-11-11T04:21:55;53998.47;;;-147.39;66.34
3524;BME280;1776;53.330;11.498;2022-11-11T04:24:20;54004.63;;;-147.39;66.39
3524;BME280;1776;53.330;11.498;2022-11-11T04:27:12;54016.91;;;-147.39;66.27
3524;BME280;1776;53.330;11.498;2022-11-11T04:29:38;54010.75;;;-147.39;66.31
3524;BME280;1776;53.330;11.498;2022-11-11T04:34:53;53996.41;;;-147.39;66.44
3524;BME280;1776;53.330;11.498;2022-11-11T04:37:19;54039.44;;;-147.39;66.39
3524;BME280;1776;53.330;11.498;2022-11-11T04:39:45;54008.72;;;-147.39;66.31
3524;BME280;1776;53.330;11.498;2022-11-11T04:42:30;53998.47;;;-147.39;66.33
3524;BME280;1776;53.330;11.498;2022-11-11T04:44:59;54021.00;;;-147.39;66.43
3524;BME280;1776;53.330;11.498;2022-11-11T04:47:58;54014.84;;;-147.39;66.70
3524;BME280;1776;53.330;11.498;2022-11-11T04:50:26;54035.34;;;-147.39;66.48
3524;BME280;1776;53.330;11.498;2022-11-11T04:52:52;53986.19;;;-147.39;66.14
3524;BME280;1776;53.330;11.498;2022-11-11T04:55:17;54016.91;;;-147.39;66.48
3524;BME280;1776;53.330;11.498;2022-11-11T04:58:01;54023.06;;;-147.39;66.18
3524;BME280;1776;53.330;11.498;2022-11-11T05:00:27;53975.94;;;-147.39;66.22
3524;BME280;1776;53.330;11.498;2022-11-11T05:02:53;54016.91;;;-147.39;66.27
3524;BME280;1776;53.330;11.498;2022-11-11T05:05:37;54012.81;;;-147.39;66.38
3524;BME280;1776;53.330;11.498;2022-11-11T05:08:21;54014.84;;;-147.39;66.72
3524;BME280;1776;53.330;11.498;2022-11-11T05:11:05;53998.47;;;-147.39;67.21
3524;BME280;1776;53.330;11.498;2022-11-11T05:13:31;54027.16;;;-147.39;66.55
3524;BME280;1776;53.330;11.498;2022-11-11T05:16:17;54006.66;;;-147.39;66.59
3524;BME280;1776;53.330;11.498;2022-11-11T05:19:02;54021.00;;;-147.39;66.75
3524;BME280;1776;53.330;11.498;2022-11-11T05:21:46;54055.84;;;-147.39;66.82
3524;BME280;1776;53.330;11.498;2022-11-11T05:24:11;54035.34;;;-147.39;67.03
3524;BME280;1776;53.330;11.498;2022-11-11T05:26:55;54006.66;;;-147.39;66.59
3524;BME280;1776;53.330;11.498;2022-11-11T05:29:20;54004.63;;;-147.39;66.65
3524;BME280;1776;53.330;11.498;2022-11-11T05:31:45;54016.91;;;-147.39;66.42
3524;BME280;1776;53.330;11.498;2022-11-11T05:34:10;54000.50;;;-147.39;66.35
3524;BME280;1776;53.330;11.498;2022-11-11T05:36:36;54004.63;;;-147.39;66.37
3524;BME280;1776;53.330;11.498;2022-11-11T05:39:01;54033.28;;;-147.39;66.48
3524;BME280;1776;53.330;11.498;2022-11-11T05:41:26;54023.06;;;-147.39;66.61
3524;BME280;1776;53.330;11.498;2022-11-11T05:43:52;53990.28;;;-147.39;66.71
3524;BME280;1776;53.330;11.498;2022-11-11T05:46:17;54012.81;;;-147.39;66.59
3524;BME280;1776;53.330;11.498;2022-11-11T05:48:42;53982.06;;;-147.39;66.44
3524;BME280;1776;53.330;11.498;2022-11-11T05:51:27;54008.72;;;-147.39;66.54
3524;BME280;1776;53.330;11.498;2022-11-11T05:53:56;53990.28;;;-147.39;66.46
3524;BME280;1776;53.330;11.498;2022-11-11T05:56:22;54023.06;;;-147.39;66.63
3524;BME280;1776;53.330;11.498;2022-11-11T05:58:47;54016.91;;;-147.39;66.55
3524;BME280;1776;53.330;11.498;2022-11-11T06:01:12;54010.75;;;-147.39;66.79
3524;BME280;1776;53.330;11.498;2022-11-11T06:03:38;54012.81;;;-147.39;66.80
3524;BME280;1776;53.330;11.498;2022-11-11T06:06:03;54010.75;;;-147.39;66.55
3524;BME280;1776;53.330;11.498;2022-11-11T06:08:28;54025.09;;;-147.39;66.58
3524;BME280;1776;53.330;11.498;2022-11-11T06:10:54;54010.75;;;-147.39;66.46
3524;BME280;1776;53.330;11.498;2022-11-11T06:13:19;54039.44;;;-147.39;66.22
3524;BME280;1776;53.330;11.498;2022-11-11T06:15:44;54014.84;;;-147.39;66.44
3524;BME280;1776;53.330;11.498;2022-11-11T06:18:09;54006.66;;;-147.39;65.87
3524;BME280;1776;53.330;11.498;2022-11-11T06:20:35;54021.00;;;-147.39;65.89
3524;BME280;1776;53.330;11.498;2022-11-11T06:23:01;54023.06;;;-147.39;65.87
3524;BME280;1776;53.330;11.498;2022-11-11T06:25:29;53982.06;;;-147.39;66.02
3524;BME280;1776;53.330;11.498;2022-11-11T06:28:13;54010.75;;;-147.39;65.85
3524;BME280;1776;53.330;11.498;2022-11-11T06:30:40;53973.88;;;-147.39;66.06
3524;BME280;1776;53.330;11.498;2022-11-11T06:33:05;54021.00;;;-147.39;66.30
3524;BME280;1776;53.330;11.498;2022-11-11T06:35:35;54012.81;;;-147.39;66.31
3524;BME280;1776;53.330;11.498;2022-11-11T06:38:05;54025.09;;;-147.39;66.56
3524;BME280;1776;53.330;11.498;2022-11-11T06:40:31;54031.25;;;-147.39;66.51
3524;BME280;1776;53.330;11.498;2022-11-11T06:42:57;53998.47;;;-147.39;66.74
3524;BME280;1776;53.330;11.498;2022-11-11T06:45:23;53986.19;;;-147.39;66.59
3524;BME280;1776;53.330;11.498;2022-11-11T06:47:49;54027.16;;;-147.39;66.91
3524;BME280;1776;53.330;11.498;2022-11-11T06:50:14;54014.84;;;-147.39;66.86
3524;BME280;1776;53.330;11.498;2022-11-11T06:52:39;54002.56;;;-147.39;66.78
3524;BME280;1776;53.330;11.498;2022-11-11T06:55:05;54055.84;;;-147.39;67.12
3524;BME280;1776;53.330;11.498;2022-11-11T06:57:30;54004.63;;;-147.39;67.03
3524;BME280;1776;53.330;11.498;2022-11-11T06:59:55;54016.91;;;-147.39;66.97
3524;BME280;1776;53.330;11.498;2022-11-11T07:02:21;54008.72;;;-147.39;66.84
3524;BME280;1776;53.330;11.498;2022-11-11T07:04:46;54004.63;;;-147.39;66.87
3524;BME280;1776;53.330;11.498;2022-11-11T07:07:11;53998.47;;;-147.39;66.67
3524;BME280;1776;53.330;11.498;2022-11-11T07:09:36;54010.75;;;-147.39;66.52
3524;BME280;1776;53.330;11.498;2022-11-11T07:12:02;53996.41;;;-147.39;66.75
3524;BME280;1776;53.330;11.498;2022-11-11T07:14:27;54049.69;;;-147.39;66.78
3524;BME280;1776;53.330;11.498;2022-11-11T07:16:52;54023.06;;;-147.39;66.66
3524;BME280;1776;53.330;11.498;2022-11-11T07:19:18;54021.00;;;-147.39;67.08
3524;BME280;1776;53.330;11.498;2022-11-11T07:21:43;54006.66;;;-147.39;67.38
3524;BME280;1776;53.330;11.498;2022-11-11T07:24:08;54025.09;;;-147.39;67.51
3524;BME280;1776;53.330;11.498;2022-11-11T07:26:33;53996.41;;;-147.39;67.33
3524;BME280;1776;53.330;11.498;2022-11-11T07:28:59;53998.47;;;-147.39;67.69
3524;BME280;1776;53.330;11.498;2022-11-11T07:31:24;54018.97;;;-147.39;67.98
3524;BME280;1776;53.330;11.498;2022-11-11T07:33:49;53998.47;;;-147.39;67.90
3524;BME280;1776;53.330;11.498;2022-11-11T07:36:14;53992.31;;;-147.39;68.06
3524;BME280;1776;53.330;11.498;2022-11-11T07:38:40;53990.28;;;-147.39;68.12
3524;BME280;1776;53.330;11.498;2022-11-11T07:41:05;54002.56;;;-147.39;68.22
3524;BME280;1776;53.330;11.498;2022-11-11T07:43:30;54004.63;;;-147.39;67.86
3524;BME280;1776;53.330;11.498;2022-11-11T07:45:55;54080.41;;;-147.39;67.94
3524;BME280;1776;53.330;11.498;2022-11-11T07:48:21;54002.56;;;-147.39;67.85
3524;BME280;1776;53.330;11.498;2022-11-11T07:50:46;53998.47;;;-147.39;67.52
3524;BME280;1776;53.330;11.498;2022-11-11T07:53:11;53996.41;;;-147.39;67.56
3524;BME280;1776;53.330;11.498;2022-11-11T07:55:36;54014.84;;;-147.39;67.49
3524;BME280;1776;53.330;11.498;2022-11-11T07:58:02;54014.84;;;-147.39;67.24
3524;BME280;1776;53.330;11.498;2022-11-11T08:00:27;53990.28;;;-147.39;67.35
3524;BME280;1776;53.330;11.498;2022-11-11T08:02:52;54002.56;;;-147.39;67.08
3524;BME280;1776;53.330;11.498;2022-11-11T08:05:18;53992.31;;;-147.39;67.14
3524;BME280;1776;53.330;11.498;2022-11-11T08:07:43;54010.75;;;-147.39;67.15
3524;BME280;1776;53.330;11.498;2022-11-11T08:10:09;54000.50;;;-147.39;66.88
3524;BME280;1776;53.330;11.498;2022-11-11T08:12:35;53994.38;;;-147.39;66.89
3524;BME280;1776;53.330;11.498;2022-11-11T08:15:19;54016.91;;;-147.39;67.03
3524;BME280;1776;53.330;11.498;2022-11-11T08:17:44;53996.41;;;-147.39;67.14
3524;BME280;1776;53.330;11.498;2022-11-11T08:20:10;53998.47;;;-147.39;67.11
3524;BME280;1776;53.330;11.498;2022-11-11T08:22:40;54004.63;;;-147.39;67.18
3524;BME280;1776;53.330;11.498;2022-11-11T08:25:07;54004.63;;;-147.39;67.36
3524;BME280;1776;53.330;11.498;2022-11-11T08:27:34;53990.28;;;-147.39;67.38
3524;BME280;1776;53.330;11.498;2022-11-11T08:29:59;54002.56;;;-147.39;67.26
3524;BME280;1776;53.330;11.498;2022-11-11T08:32:25;53992.31;;;-147.39;67.43
3524;BME280;1776;53.330;11.498;2022-11-11T08:34:50;54012.81;;;-147.39;67.36
3524;BME280;1776;53.330;11.498;2022-11-11T08:37:15;53957.50;;;-147.39;67.20
3524;BME280;1776;53.330;11.498;2022-11-11T08:39:40;53986.19;;;-147.39;67.20
3524;BME280;1776;53.330;11.498;2022-11-11T08:42:06;54006.66;;;-147.39;67.18
3524;BME280;1776;53.330;11.498;2022-11-11T08:44:31;53973.88;;;-147.39;67.04
3524;BME280;1776;53.330;11.498;2022-11-11T08:46:56;53971.84;;;-147.39;67.25
3524;BME280;1776;53.330;11.498;2022-11-11T08:49:22;53971.84;;;-147.39;67.44
3524;BME280;1776;53.330;11.498;2022-11-11T08:51:47;54010.75;;;-147.39;67.28
3524;BME280;1776;53.330;11.498;2022-11-11T08:54:12;53986.19;;;-147.39;67.13
3524;BME280;1776;53.330;11.498;2022-11-11T08:56:37;54000.50;;;-147.39;67.30
3524;BME280;1776;53.330;11.498;2022-11-11T08:59:04;53953.41;;;-147.39;67.60
3524;BME280;1776;53.330;11.498;2022-11-11T09:01:29;54010.75;;;-147.39;67.60
3524;BME280;1776;53.330;11.498;2022-11-11T09:03:55;54006.66;;;-147.39;67.46
3524;BME280;1776;53.330;11.498;2022-11-11T09:06:20;53992.31;;;-147.39;67.78
3524;BME280;1776;53.330;11.498;2022-11-11T09:08:45;53975.94;;;-147.39;67.68
3524;BME280;1776;53.330;11.498;2022-11-11T09:11:11;53996.41;;;-147.39;67.52
3524;BME280;1776;53.330;11.498;2022-11-11T09:13:36;53973.88;;;-147.39;67.50
3524;BME280;1776;53.330;11.498;2022-11-11T09:16:01;53998.47;;;-147.39;67.53
3524;BME280;1776;53.330;11.498;2022-11-11T09:18:27;54010.75;;;-147.39;67.67
3524;BME280;1776;53.330;11.498;2022-11-11T09:20:52;54006.66;;;-147.39;67.90
3524;BME280;1776;53.330;11.498;2022-11-11T09:23:17;53988.22;;;-147.39;68.34
3524;BME280;1776;53.330;11.498;2022-11-11T09:25:43;54018.97;;;-147.39;68.53
3524;BME280;1776;53.330;11.498;2022-11-11T09:28:08;54000.50;;;-147.39;68.51
3524;BME280;1776;53.330;11.498;2022-11-11T09:30:33;54000.50;;;-147.39;68.55
3524;BME280;1776;53.330;11.498;2022-11-11T09:33:03;53980.03;;;-147.39;68.42
3524;BME280;1776;53.330;11.498;2022-11-11T09:35:28;53988.22;;;-147.39;68.33
3524;BME280;1776;53.330;11.498;2022-11-11T09:37:55;54004.63;;;-147.39;68.39
3524;BME280;1776;53.330;11.498;2022-11-11T09:40:23;54002.56;;;-147.39;68.47
3524;BME280;1776;53.330;11.498;2022-11-11T09:43:34;54031.25;;;-147.39;68.36
3524;BME280;1776;53.330;11.498;2022-11-11T09:46:04;53977.97;;;-147.39;68.40
3524;BME280;1776;53.330;11.498;2022-11-11T09:51:19;54018.97;;;-147.39;68.38
3524;BME280;1776;53.330;11.498;2022-11-11T09:53:53;54002.56;;;-147.39;68.19
3524;BME280;1776;53.330;11.498;2022-11-11T09:56:23;53973.88;;;-147.39;68.03
3524;BME280;1776;53.330;11.498;2022-11-11T09:59:05;53967.72;;;-147.39;67.85
3524;BME280;1776;53.330;11.498;2022-11-11T10:01:56;53971.84;;;-147.39;67.66
3524;BME280;1776;53.330;11.498;2022-11-11T10:07:06;54006.66;;;-147.39;67.37
3524;BME280;1776;53.330;11.498;2022-11-11T10:09:46;53971.84;;;-147.39;67.16
3524;BME280;1776;53.330;11.498;2022-11-11T10:12:16;53955.44;;;-147.39;66.59
3524;BME280;1776;53.330;11.498;2022-11-11T10:14:46;53982.06;;;-147.39;66.70
3524;BME280;1776;53.330;11.498;2022-11-11T10:17:25;53990.28;;;-147.39;66.65
3524;BME280;1776;53.330;11.498;2022-11-11T10:20:16;53992.31;;;-147.39;66.33
3524;BME280;1776;53.330;11.498;2022-11-11T10:22:44;54008.72;;;-147.39;66.12
3524;BME280;1776;53.330;11.498;2022-11-11T10:27:40;53980.03;;;-147.39;65.79
3524;BME280;1776;53.330;11.498;2022-11-11T10:30:18;53990.28;;;-147.39;65.69
3524;BME280;1776;53.330;11.498;2022-11-11T10:33:10;54014.84;;;-147.39;65.83
3524;BME280;1776;53.330;11.498;2022-11-11T10:35:33;53994.38;;;-147.39;65.50
3524;BME280;1776;53.330;11.498;2022-11-11T10:40:41;54008.72;;;-147.39;65.04
3524;BME280;1776;53.330;11.498;2022-11-11T10:43:26;53994.38;;;-147.39;65.64
3524;BME280;1776;53.330;11.498;2022-11-11T10:51:15;53994.38;;;-147.39;65.75
3524;BME280;1776;53.330;11.498;2022-11-11T10:53:53;53990.28;;;-147.39;65.99
3524;BME280;1776;53.330;11.498;2022-11-11T10:56:43;53963.63;;;-147.39;65.58
3524;BME280;1776;53.330;11.498;2022-11-11T10:59:21;53957.50;;;-147.39;65.47
3524;BME280;1776;53.330;11.498;2022-11-11T11:02:04;53963.63;;;-147.39;65.36
3524;BME280;1776;53.330;11.498;2022-11-11T11:04:40;53969.78;;;-147.39;65.04
3524;BME280;1776;53.330;11.498;2022-11-11T11:07:10;53951.34;;;-147.39;65.03
3524;BME280;1776;53.330;11.498;2022-11-11T11:09:44;53996.41;;;-147.39;65.09
3524;BME280;1776;53.330;11.498;2022-11-11T11:12:16;53980.03;;;-147.39;64.89
3524;BME280;1776;53.330;11.498;2022-11-11T11:14:44;54021.00;;;-147.39;64.62
3524;BME280;1776;53.330;11.498;2022-11-11T11:17:26;53955.44;;;-147.39;64.56
3524;BME280;1776;53.330;11.498;2022-11-11T11:20:15;53945.19;;;-147.39;64.85
3524;BME280;1776;53.330;11.498;2022-11-11T11:22:46;53971.84;;;-147.39;64.54
3524;BME280;1776;53.330;11.498;2022-11-11T11:25:12;53984.13;;;-147.39;64.21
3524;BME280;1776;53.330;11.498;2022-11-11T11:27:38;53971.84;;;-147.39;64.43
3524;BME280;1776;53.330;11.498;2022-11-11T11:30:23;53998.47;;;-147.39;64.31
3524;BME280;1776;53.330;11.498;2022-11-11T11:33:00;53963.63;;;-147.39;63.88
3524;BME280;1776;53.330;11.498;2022-11-11T11:35:42;53955.44;;;-147.39;62.56
3524;BME280;1776;53.330;11.498;2022-11-11T11:38:09;53947.25;;;-147.39;62.16
3524;BME280;1776;53.330;11.498;2022-11-11T11:40:53;53977.97;;;-147.39;61.78
3524;BME280;1776;53.330;11.498;2022-11-11T11:43:36;53943.16;;;-147.39;61.20
3524;BME280;1776;53.330;11.498;2022-11-11T11:46:23;53953.41;;;-147.39;61.12
3524;BME280;1776;53.330;11.498;2022-11-11T12:06:35;53955.44;;;-147.39;59.51
3524;BME280;1776;53.330;11.498;2022-11-11T12:09:02;53986.19;;;-147.39;59.77
3524;BME280;1776;53.330;11.498;2022-11-11T12:11:38;53945.19;;;-147.39;59.99
3524;BME280;1776;53.330;11.498;2022-11-11T12:14:32;53945.19;;;-147.39;60.09
3524;BME280;1776;53.330;11.498;2022-11-11T12:17:10;53957.50;;;-147.39;60.53
3524;BME280;1776;53.330;11.498;2022-11-11T12:19:46;53945.19;;;-147.39;60.61
3524;BME280;1776;53.330;11.498;2022-11-11T12:25:11;53941.09;;;-147.39;60.54
3524;BME280;1776;53.330;11.498;2022-11-11T12:28:08;53961.59;;;-147.39;60.45
3524;BME280;1776;53.330;11.498;2022-11-11T12:30:39;53953.41;;;-147.39;60.63
3524;BME280;1776;53.330;11.498;2022-11-11T12:34:04;53922.66;;;-147.39;60.51
3524;BME280;1776;53.330;11.498;2022-11-11T12:36:33;53951.34;;;-147.39;60.56
3524;BME280;1776;53.330;11.498;2022-11-11T12:39:25;53949.28;;;-147.39;60.53
3524;BME280;1776;53.330;11.498;2022-11-11T12:45:12;53955.44;;;-147.39;60.74
3524;BME280;1776;53.330;11.498;2022-11-11T12:48:17;53959.53;;;-147.39;60.76
3524;BME280;1776;53.330;11.498;2022-11-11T12:50:53;53914.47;;;-147.39;60.75
3524;BME280;1776;53.330;11.498;2022-11-11T12:53:33;53955.44;;;-147.39;60.82
3524;BME280;1776;53.330;11.498;2022-11-11T12:58:42;53953.41;;;-147.39;60.84
3524;BME280;1776;53.330;11.498;2022-11-11T13:01:17;53953.41;;;-147.39;60.97
3524;BME280;1776;53.330;11.498;2022-11-11T13:09:28;53920.63;;;-147.39;60.71
3524;BME280;1776;53.330;11.498;2022-11-11T13:12:17;53939.06;;;-147.39;60.90
3524;BME280;1776;53.330;11.498;2022-11-11T13:17:21;53945.19;;;-147.39;60.77
3524;BME280;1776;53.330;11.498;2022-11-11T13:20:03;53939.06;;;-147.39;61.13
3524;BME280;1776;53.330;11.498;2022-11-11T13:22:30;54000.50;;;-147.39;60.96
3524;BME280;1776;53.330;11.498;2022-11-11T13:24:57;53930.84;;;-147.39;61.04
3524;BME280;1776;53.330;11.498;2022-11-11T13:27:38;53969.78;;;-147.39;61.25
3524;BME280;1776;53.330;11.498;2022-11-11T13:33:15;53945.19;;;-147.39;61.49
3524;BME280;1776;53.330;11.498;2022-11-11T13:41:00;53922.66;;;-147.39;61.44
3524;BME280;1776;53.330;11.498;2022-11-11T13:43:32;53949.28;;;-147.39;61.29
3524;BME280;1776;53.330;11.498;2022-11-11T13:46:02;53922.66;;;-147.39;61.01
3524;BME280;1776;53.330;11.498;2022-11-11T13:48:42;53949.28;;;-147.39;61.01
3524;BME280;1776;53.330;11.498;2022-11-11T13:54:01;53951.34;;;-147.39;61.21
3524;BME280;1776;53.330;11.498;2022-11-11T13:57:08;53941.09;;;-147.39;61.04
3524;BME280;1776;53.330;11.498;2022-11-11T13:59:43;53982.06;;;-147.39;61.26
3524;BME280;1776;53.330;11.498;2022-11-11T14:12:45;53928.81;;;-147.39;60.89
3524;BME280;1776;53.330;11.498;2022-11-11T14:20:47;53920.63;;;-147.39;60.94
3524;BME280;1776;53.330;11.498;2022-11-11T14:23:39;53912.41;;;-147.39;60.53
3524;BME280;1776;53.330;11.498;2022-11-11T14:28:32;53910.38;;;-147.39;60.77
3524;BME280;1776;53.330;11.498;2022-11-11T14:33:51;53939.06;;;-147.39;61.08
3524;BME280;1776;53.330;11.498;2022-11-11T14:39:00;53949.28;;;-147.39;60.85
3524;BME280;1776;53.330;11.498;2022-11-11T14:52:20;53918.56;;;-147.39;60.89